sensor_id;sensor_type;location;lat;lon;timestamp;P1;P2;P0
54587;PMS7003;40484;50.198;19.576;2023-04-21T05:03:11;17;17;12
54587;PMS7003;40484;50.198;19.576;2023-04-21T05:08:12;21;21;15
54587;PMS7003;40484;50.198;19.576;2023-04-21T05:13:15;11;10;9
54587;PMS7003;40484;50.198;19.576;2023-04-21T05:18:17;12;12;10
54587;PMS7003;40484;50.198;19.576;2023-04-21T05:23:19;17;16;12
54587;PMS7003;40484;50.198;19.576;2023-04-21T05:28:20;18;18;15
54587;PMS7003;40484;50.198;19.576;2023-04-21T05:33:22;15;14;11
54587;PMS7003;40484;50.198;19.576;2023-04-21T05:38:26;16;15;9
54587;PMS7003;40484;50.198;19.576;2023-04-21T05:43:27;22;18;14
54587;PMS7003;40484;50.198;19.576;2023-04-21T05:48:29;11;11;9
54587;PMS7003;40484;50.198;19.576;2023-04-21T05:53:30;15;13;11
54587;PMS7003;40484;50.198;19.576;2023-04-21T05:58:32;16;14;11
54587;PMS7003;40484;50.198;19.576;2023-04-21T06:03:34;12;12;8
54587;PMS7003;40484;50.198;19.576;2023-04-21T06:08:35;15;15;11
54587;PMS7003;40484;50.198;19.576;2023-04-21T06:13:37;17;11;8
54587;PMS7003;40484;50.198;19.576;2023-04-21T06:18:38;15;13;10
54587;PMS7003;40484;50.198;19.576;2023-04-21T06:23:40;8;7;6
54587;PMS7003;40484;50.198;19.576;2023-04-21T06:28:42;13;13;9
54587;PMS7003;40484;50.198;19.576;2023-04-21T06:33:43;8;8;7
54587;PMS7003;40484;50.198;19.576;2023-04-21T06:38:45;11;10;9
54587;PMS7003;40484;50.198;19.576;2023-04-21T06:43:46;11;10;8
54587;PMS7003;40484;50.198;19.576;2023-04-21T06:49:12;11;11;9
54587;PMS7003;40484;50.198;19.576;2023-04-21T06:54:13;13;12;9
54587;PMS7003;40484;50.198;19.576;2023-04-21T06:59:15;12;10;8
54587;PMS7003;40484;50.198;19.576;2023-04-21T07:04:17;10;10;8
54587;PMS7003;40484;50.198;19.576;2023-04-21T07:09:19;9;9;7
54587;PMS7003;40484;50.198;19.576;2023-04-21T07:14:20;14;10;9
54587;PMS7003;40484;50.198;19.576;2023-04-21T07:19:22;11;11;9
54587;PMS7003;40484;50.198;19.576;2023-04-21T07:24:23;10;9;8
54587;PMS7003;40484;50.198;19.576;2023-04-21T07:29:25;11;11;10
54587;PMS7003;40484;50.198;19.576;2023-04-21T07:34:26;10;9;7
54587;PMS7003;40484;50.198;19.576;2023-04-21T07:39:28;11;11;9
54587;PMS7003;40484;50.198;19.576;2023-04-21T07:44:29;10;10;9
54587;PMS7003;40484;50.198;19.576;2023-04-21T07:49:31;12;11;10
54587;PMS7003;40484;50.198;19.576;2023-04-21T07:54:32;14;13;11
54587;PMS7003;40484;50.198;19.576;2023-04-21T07:59:34;14;13;10
54587;PMS7003;40484;50.198;19.576;2023-04-21T08:04:35;10;10;8
54587;PMS7003;40484;50.198;19.576;2023-04-21T08:09:37;15;12;10
54587;PMS7003;40484;50.198;19.576;2023-04-21T08:14:39;13;12;10
54587;PMS7003;40484;50.198;19.576;2023-04-21T08:19:40;13;13;10
54587;PMS7003;40484;50.198;19.576;2023-04-21T08:24:42;14;13;12
54587;PMS7003;40484;50.198;19.576;2023-04-21T08:29:43;13;13;11
54587;PMS7003;40484;50.198;19.576;2023-04-21T08:34:45;13;12;10
54587;PMS7003;40484;50.198;19.576;2023-04-21T08:40:12;12;12;10
54587;PMS7003;40484;50.198;19.576;2023-04-21T08:45:13;21;18;12
54587;PMS7003;40484;50.198;19.576;2023-04-21T08:50:16;14;14;12
54587;PMS7003;40484;50.198;19.576;2023-04-21T08:55:18;14;12;11
54587;PMS7003;40484;50.198;19.576;2023-04-21T09:00:21;14;13;11
54587;PMS7003;40484;50.198;19.576;2023-04-21T09:05:23;13;13;9
54587;PMS7003;40484;50.198;19.576;2023-04-21T09:10:26;16;14;12
54587;PMS7003;40484;50.198;19.576;2023-04-21T09:15:27;11;11;9
54587;PMS7003;40484;50.198;19.576;2023-04-21T09:20:29;17;16;13
54587;PMS7003;40484;50.198;19.576;2023-04-21T09:25:31;17;14;11
54587;PMS7003;40484;50.198;19.576;2023-04-21T09:30:36;16;15;12
54587;PMS7003;40484;50.198;19.576;2023-04-21T09:35:36;17;16;12
54587;PMS7003;40484;50.198;19.576;2023-04-21T09:40:39;16;15;11
54587;PMS7003;40484;50.198;19.576;2023-04-21T09:45:41;13;13;10
54587;PMS7003;40484;50.198;19.576;2023-04-21T09:50:42;15;14;12
54587;PMS7003;40484;50.198;19.576;2023-04-21T09:55:46;15;13;11
54587;PMS7003;40484;50.198;19.576;2023-04-21T10:00:50;14;12;11
54587;PMS7003;40484;50.198;19.576;2023-04-21T10:05:53;17;16;12
54587;PMS7003;40484;50.198;19.576;2023-04-21T10:10:55;13;13;11
54587;PMS7003;40484;50.198;19.576;2023-04-21T10:16:24;14;14;11
54587;PMS7003;40484;50.198;19.576;2023-04-21T10:21:26;17;13;11
54587;PMS7003;40484;50.198;19.576;2023-04-21T10:26:33;19;16;13
54587;PMS7003;40484;50.198;19.576;2023-04-21T10:31:35;15;11;9
54587;PMS7003;40484;50.198;19.576;2023-04-21T10:41:48;12;11;10
54587;PMS7003;40484;50.198;19.576;2023-04-21T10:46:51;8;8;7
54587;PMS7003;40484;50.198;19.576;2023-04-21T10:57:04;11;10;7
54587;PMS7003;40484;50.198;19.576;2023-04-21T11:02:05;10;10;7
54587;PMS7003;40484;50.198;19.576;2023-04-21T11:07:15;12;12;10
54587;PMS7003;40484;50.198;19.576;2023-04-21T11:12:16;14;9;8
54587;PMS7003;40484;50.198;19.576;2023-04-21T11:17:18;13;13;11
54587;PMS7003;40484;50.198;19.576;2023-04-21T11:22:23;12;11;8
54587;PMS7003;40484;50.198;19.576;2023-04-21T11:27:26;8;8;7
54587;PMS7003;40484;50.198;19.576;2023-04-21T11:32:53;12;12;8
54587;PMS7003;40484;50.198;19.576;2023-04-21T11:37:55;12;11;9
54587;PMS7003;40484;50.198;19.576;2023-04-21T11:42:57;11;11;9
54587;PMS7003;40484;50.198;19.576;2023-04-21T11:48:11;11;11;9
54587;PMS7003;40484;50.198;19.576;2023-04-21T11:53:14;10;10;9
54587;PMS7003;40484;50.198;19.576;2023-04-21T11:58:15;9;9;7
54587;PMS7003;40484;50.198;19.576;2023-04-21T12:03:18;10;10;8
54587;PMS7003;40484;50.198;19.576;2023-04-21T12:08:20;10;10;8
54587;PMS7003;40484;50.198;19.576;2023-04-21T12:13:22;10;7;7
54587;PMS7003;40484;50.198;19.576;2023-04-21T12:18:26;11;11;9
54587;PMS7003;40484;50.198;19.576;2023-04-21T12:23:29;12;11;9
54587;PMS7003;40484;50.198;19.576;2023-04-21T12:28:31;11;11;9
54587;PMS7003;40484;50.198;19.576;2023-04-21T12:33:32;9;9;8
54587;PMS7003;40484;50.198;19.576;2023-04-21T12:38:34;12;12;9
54587;PMS7003;40484;50.198;19.576;2023-04-21T12:43:35;11;11;9
54587;PMS7003;40484;50.198;19.576;2023-04-21T12:48:37;9;9;7
54587;PMS7003;40484;50.198;19.576;2023-04-21T12:53:38;9;9;7
54587;PMS7003;40484;50.198;19.576;2023-04-21T12:58:40;8;8;7
54587;PMS7003;40484;50.198;19.576;2023-04-21T13:04:09;7;7;7
54587;PMS7003;40484;50.198;19.576;2023-04-21T13:09:11;9;7;6
54587;PMS7003;40484;50.198;19.576;2023-04-21T13:14:12;8;8;7
54587;PMS7003;40484;50.198;19.576;2023-04-21T13:19:16;7;7;6
54587;PMS7003;40484;50.198;19.576;2023-04-21T13:24:17;9;8;6
54587;PMS7003;40484;50.198;19.576;2023-04-21T13:29:19;9;7;6
54587;PMS7003;40484;50.198;19.576;2023-04-21T13:34:20;7;7;6
54587;PMS7003;40484;50.198;19.576;2023-04-21T13:39:22;7;7;6
54587;PMS7003;40484;50.198;19.576;2023-04-21T13:44:24;9;9;7
54587;PMS7003;40484;50.198;19.576;2023-04-21T13:49:25;7;7;7
54587;PMS7003;40484;50.198;19.576;2023-04-21T13:54:27;10;8;7
54587;PMS7003;40484;50.198;19.576;2023-04-21T13:59:28;7;7;6
54587;PMS7003;40484;50.198;19.576;2023-04-21T14:04:30;9;6;6
54587;PMS7003;40484;50.198;19.576;2023-04-21T14:09:31;6;6;6
54587;PMS7003;40484;50.198;19.576;2023-04-21T14:14:33;7;7;6
